Decoded Metar for SBFI (FOZ DO IGUACU in BRAZIL) (IATA:IGU) | Meteo·Mobile Aviation Weather
aviador You're here:

SBFI Decoded Metar

FOZ DO IGUACU in BRAZIL
Report Time2018-09-22 03:00:00
UTC Time2018-09-22 03:05:47
Flight Rules vfr VFR
Wind110° at 04 kt
W.Decomp.*RWY 14: 3.8 kt HW 1.1 kt LCW
W.Rank110° ranks 5
Current wind is below 110° avg. (5.8)
Visibility9999 m
Phenomena:N/A
Clouds:N/A
Expected CloudBase > 1,600 ft AGL from Temp-Dew spread
CeilingNone
Temp23°C (ISA +10)
Dew Point19°C (78% RH)
QNH1013 hPa
Density Alt2,205 ft
Elevation797 ft
Report Wrong Elevation
Raw Report
METAR SBFI 220300Z 11004KT CAVOK 23/19 Q1013=

Extra information for SBFI:More info

Metar Taf Metar & Taf Last 4 Metars F.Rules Stats Wind Profile Meteogram Temp Stats Airport Information Weather charts Add Link Nearby VenuesMetar ALERT Operation Metar Decoded Social comments